Time;durP1;ratioP1;P1;durP2;ratioP2;P2;SDS_P1;SDS_P2;PMS_P1;PMS_P2;Temp;Humidity;BMP_temperature;BMP_pressure;BME280_temperature;BME280_humidity;BME280_pressure;Samples;Min_cycle;Max_cycle;Signal;HPM_P1;HPM_P2
2024/03/02 00:01:32;;;;;;;2.95;2.13;;;;;;;;;;5092024;28;20067;-60
2024/03/02 00:03:59;;;;;;;4.25;2.20;;;;;;;;;;5091854;28;20067;-60
2024/03/02 00:06:26;;;;;;;3.33;2.58;;;;;;;;;;5090707;28;20055;-61
2024/03/02 00:08:57;;;;;;;2.92;2.10;;;;;;;;;;5091528;28;20048;-59
2024/03/02 00:11:24;;;;;;;2.60;2.20;;;;;;;;;;5092047;28;20048;-61
2024/03/02 00:13:53;;;;;;;2.70;2.10;;;;;;;;;;5093783;28;20052;-61
2024/03/02 00:16:20;;;;;;;3.53;2.30;;;;;;;;;;5093786;28;20481;-61
2024/03/02 00:18:47;;;;;;;3.08;2.10;;;;;;;;;;5092594;28;20420;-60
2024/03/02 00:21:14;;;;;;;3.05;1.90;;;;;;;;;;5091032;28;20079;-61
2024/03/02 00:23:41;;;;;;;3.13;2.10;;;;;;;;;;5090264;28;20052;-61
2024/03/02 00:26:12;;;;;;;3.17;2.20;;;;;;;;;;5092304;28;20382;-60
2024/03/02 00:28:43;;;;;;;2.78;2.00;;;;;;;;;;5093384;28;20070;-61
2024/03/02 00:31:11;;;;;;;3.50;2.33;;;;;;;;;;5093468;28;20048;-61
2024/03/02 00:33:40;;;;;;;3.03;2.17;;;;;;;;;;5092658;28;20052;-60
2024/03/02 00:36:08;;;;;;;2.83;2.00;;;;;;;;;;5091055;28;20055;-60
2024/03/02 00:38:35;;;;;;;3.40;1.98;;;;;;;;;;5091290;28;20048;-60
2024/03/02 00:41:06;;;;;;;2.85;2.00;;;;;;;;;;5090809;28;20122;-60
2024/03/02 00:43:44;;;;;;;3.92;2.25;;;;;;;;;;5091274;28;20059;-60
2024/03/02 00:46:16;;;;;;;3.33;2.10;;;;;;;;;;5082043;28;20481;-59
2024/03/02 00:48:49;;;;;;;4.18;1.83;;;;;;;;;;5089144;28;20080;-60
2024/03/02 00:51:15;;;;;;;2.20;1.70;;;;;;;;;;5088582;28;20044;-59
2024/03/02 00:53:42;;;;;;;3.63;1.75;;;;;;;;;;5090263;28;20370;-60
2024/03/02 00:56:10;;;;;;;3.63;2.10;;;;;;;;;;5089792;28;20052;-60
2024/03/02 00:58:37;;;;;;;4.32;1.80;;;;;;;;;;5089208;28;20059;-59
2024/03/02 01:01:05;;;;;;;3.55;1.70;;;;;;;;;;5089801;28;20044;-59
2024/03/02 01:03:32;;;;;;;2.80;1.73;;;;;;;;;;5091305;28;20055;-61
2024/03/02 01:05:59;;;;;;;3.58;1.60;;;;;;;;;;5090817;28;20159;-61
2024/03/02 01:08:26;;;;;;;2.42;1.50;;;;;;;;;;5089647;28;20082;-60
2024/03/02 01:10:53;;;;;;;2.33;1.40;;;;;;;;;;5090813;28;20397;-60
2024/03/02 01:13:20;;;;;;;3.22;1.55;;;;;;;;;;5090903;28;20055;-60
2024/03/02 01:15:46;;;;;;;2.25;1.35;;;;;;;;;;5090814;28;20060;-60
2024/03/02 01:18:15;;;;;;;4.60;1.90;;;;;;;;;;5091046;28;20063;-60
2024/03/02 01:20:42;;;;;;;3.08;1.60;;;;;;;;;;5088804;28;20060;-59
2024/03/02 01:23:08;;;;;;;2.10;1.40;;;;;;;;;;5091802;28;20067;-60
2024/03/02 01:25:36;;;;;;;3.60;1.65;;;;;;;;;;5092063;28;20055;-60
2024/03/02 01:28:03;;;;;;;2.60;1.60;;;;;;;;;;5091959;28;20063;-60
2024/03/02 01:30:30;;;;;;;2.63;1.58;;;;;;;;;;5090271;28;20055;-60
2024/03/02 01:32:58;;;;;;;2.47;1.50;;;;;;;;;;5092313;28;20056;-60
2024/03/02 01:35:27;;;;;;;2.40;1.00;;;;;;;;;;5092033;28;20055;-59
2024/03/02 01:37:54;;;;;;;2.85;1.30;;;;;;;;;;5090328;28;20051;-60
2024/03/02 01:40:21;;;;;;;2.00;1.25;;;;;;;;;;5090347;28;20485;-59
2024/03/02 01:42:47;;;;;;;3.63;1.40;;;;;;;;;;5090194;28;20048;-59
2024/03/02 01:45:14;;;;;;;2.50;1.20;;;;;;;;;;5090083;28;20389;-60
2024/03/02 01:47:40;;;;;;;2.75;1.30;;;;;;;;;;5088389;28;20493;-58
2024/03/02 01:50:08;;;;;;;2.50;1.02;;;;;;;;;;5092251;28;20508;-59
2024/03/02 01:52:37;;;;;;;3.22;1.30;;;;;;;;;;5090711;28;20052;-60
2024/03/02 01:55:04;;;;;;;2.00;1.17;;;;;;;;;;5091098;28;20413;-60
2024/03/02 01:57:31;;;;;;;2.30;1.20;;;;;;;;;;5096233;28;20056;-61
2024/03/02 01:59:58;;;;;;;2.03;1.13;;;;;;;;;;5096460;28;20059;-59
2024/03/02 02:02:25;;;;;;;2.47;1.20;;;;;;;;;;5095268;28;20071;-59
2024/03/02 02:04:52;;;;;;;2.67;1.20;;;;;;;;;;5095255;28;20059;-60
2024/03/02 02:07:19;;;;;;;1.77;1.15;;;;;;;;;;5095425;28;20481;-60
2024/03/02 02:09:47;;;;;;;3.72;1.40;;;;;;;;;;5095844;28;20056;-60
2024/03/02 02:12:15;;;;;;;2.17;1.10;;;;;;;;;;5095832;28;20052;-60
2024/03/02 02:14:48;;;;;;;3.00;1.10;;;;;;;;;;5092768;28;20055;-60
2024/03/02 02:17:14;;;;;;;3.00;1.00;;;;;;;;;;5093431;28;20044;-59
2024/03/02 02:19:41;;;;;;;2.67;1.27;;;;;;;;;;5094197;28;20055;-60
2024/03/02 02:22:09;;;;;;;3.63;1.23;;;;;;;;;;5095120;28;20059;-60
2024/03/02 02:24:36;;;;;;;1.50;1.00;;;;;;;;;;5094979;28;20058;-60
2024/03/02 02:27:03;;;;;;;2.65;1.30;;;;;;;;;;5094275;28;20070;-60
2024/03/02 02:29:30;;;;;;;1.75;1.02;;;;;;;;;;5093375;28;20056;-60
2024/03/02 02:31:57;;;;;;;2.33;1.10;;;;;;;;;;5093492;28;20063;-59
2024/03/02 02:34:23;;;;;;;2.28;1.00;;;;;;;;;;5093596;28;20473;-59
2024/03/02 02:36:50;;;;;;;2.65;1.23;;;;;;;;;;5093922;28;20404;-59
2024/03/02 02:39:19;;;;;;;3.70;1.30;;;;;;;;;;5095542;28;20055;-60
2024/03/02 02:41:46;;;;;;;2.63;1.10;;;;;;;;;;5095419;28;20413;-60
2024/03/02 02:44:14;;;;;;;1.58;0.98;;;;;;;;;;5093818;28;20044;-60
2024/03/02 02:46:41;;;;;;;4.60;1.33;;;;;;;;;;5093139;28;20043;-60
2024/03/02 02:49:07;;;;;;;2.78;1.13;;;;;;;;;;5093573;28;20052;-60
2024/03/02 02:51:34;;;;;;;1.85;1.15;;;;;;;;;;5092858;28;20044;-60
2024/03/02 02:54:01;;;;;;;3.83;1.50;;;;;;;;;;5094469;28;20403;-59
2024/03/02 02:56:29;;;;;;;2.38;1.15;;;;;;;;;;5095253;28;20055;-60
2024/03/02 02:58:56;;;;;;;3.53;1.35;;;;;;;;;;5095097;28;20052;-60
2024/03/02 03:01:23;;;;;;;4.13;1.50;;;;;;;;;;5090226;28;20048;-60
2024/03/02 03:03:49;;;;;;;1.63;1.02;;;;;;;;;;5091032;28;20055;-60
2024/03/02 03:06:16;;;;;;;2.35;1.48;;;;;;;;;;5092529;28;20063;-60
2024/03/02 03:08:43;;;;;;;2.42;1.23;;;;;;;;;;5091734;28;20060;-61
2024/03/02 03:11:10;;;;;;;3.72;1.38;;;;;;;;;;5092894;28;20048;-60
2024/03/02 03:13:38;;;;;;;2.30;1.20;;;;;;;;;;5092297;28;20048;-60
2024/03/02 03:16:05;;;;;;;2.70;1.15;;;;;;;;;;5092566;28;20409;-60
2024/03/02 03:18:32;;;;;;;3.25;1.27;;;;;;;;;;5090974;28;20493;-59
2024/03/02 03:20:59;;;;;;;2.17;1.20;;;;;;;;;;5094389;28;20052;-60
2024/03/02 03:23:26;;;;;;;2.25;1.20;;;;;;;;;;5093964;28;20511;-59
2024/03/02 03:25:53;;;;;;;3.55;1.17;;;;;;;;;;5090095;28;20056;-59
2024/03/02 03:28:20;;;;;;;2.38;1.27;;;;;;;;;;5092553;28;20056;-60
2024/03/02 03:30:48;;;;;;;2.53;1.20;;;;;;;;;;5092215;28;20060;-61
2024/03/02 03:33:15;;;;;;;3.17;1.60;;;;;;;;;;5093248;28;20052;-60
2024/03/02 03:35:42;;;;;;;2.00;1.20;;;;;;;;;;5094215;28;20378;-60
2024/03/02 03:38:08;;;;;;;2.90;1.10;;;;;;;;;;5094224;28;20052;-60
2024/03/02 03:40:35;;;;;;;2.40;1.38;;;;;;;;;;5093668;28;20056;-60
2024/03/02 03:43:02;;;;;;;2.80;1.45;;;;;;;;;;5092040;28;20044;-60
2024/03/02 03:45:30;;;;;;;2.67;1.30;;;;;;;;;;5092134;28;20055;-60
2024/03/02 03:47:58;;;;;;;1.80;1.20;;;;;;;;;;5093479;28;20056;-60
2024/03/02 03:50:25;;;;;;;2.50;1.17;;;;;;;;;;5094068;28;20048;-61
2024/03/02 03:52:52;;;;;;;3.75;1.40;;;;;;;;;;5091459;28;20048;-60
2024/03/02 03:55:19;;;;;;;2.75;1.30;;;;;;;;;;5092233;28;20417;-60
2024/03/02 03:57:45;;;;;;;3.75;1.50;;;;;;;;;;5091393;28;20074;-61
2024/03/02 04:00:13;;;;;;;2.83;1.40;;;;;;;;;;5092272;28;20044;-60
2024/03/02 04:02:39;;;;;;;2.40;1.40;;;;;;;;;;5093674;28;20044;-61
2024/03/02 04:05:10;;;;;;;3.13;1.50;;;;;;;;;;5093790;28;20048;-61
2024/03/02 04:07:40;;;;;;;2.92;1.42;;;;;;;;;;5093567;28;20048;-61
2024/03/02 04:10:09;;;;;;;2.28;1.40;;;;;;;;;;5089382;28;20413;-60
2024/03/02 04:12:37;;;;;;;3.30;1.42;;;;;;;;;;5092239;28;20044;-61
2024/03/02 04:15:06;;;;;;;3.17;1.67;;;;;;;;;;5093111;28;20048;-60
2024/03/02 04:17:33;;;;;;;4.30;1.77;;;;;;;;;;5091330;28;20048;-60
2024/03/02 04:20:00;;;;;;;2.72;1.50;;;;;;;;;;5090607;28;20118;-60
2024/03/02 04:22:28;;;;;;;4.20;1.70;;;;;;;;;;5091231;28;20374;-61
2024/03/02 04:24:55;;;;;;;4.50;1.70;;;;;;;;;;5092988;28;20056;-61
2024/03/02 04:27:22;;;;;;;5.13;1.88;;;;;;;;;;5091304;28;20052;-60
2024/03/02 04:29:49;;;;;;;2.25;1.50;;;;;;;;;;5090158;28;20066;-61
2024/03/02 04:32:16;;;;;;;2.97;1.83;;;;;;;;;;5093225;28;20059;-60
2024/03/02 04:34:43;;;;;;;2.95;1.70;;;;;;;;;;5093271;28;20429;-61
2024/03/02 04:37:10;;;;;;;3.67;1.65;;;;;;;;;;5092995;28;20047;-61
2024/03/02 04:39:38;;;;;;;2.97;1.88;;;;;;;;;;5091488;28;20066;-60
2024/03/02 04:42:05;;;;;;;3.75;1.80;;;;;;;;;;5090724;28;20047;-60
2024/03/02 04:44:32;;;;;;;4.18;1.90;;;;;;;;;;5091339;28;20048;-60
2024/03/02 04:46:59;;;;;;;3.05;1.52;;;;;;;;;;5090962;28;20058;-61
2024/03/02 04:49:26;;;;;;;4.20;2.28;;;;;;;;;;5092457;28;20122;-61
2024/03/02 04:51:52;;;;;;;3.05;2.00;;;;;;;;;;5092808;28;20477;-61
2024/03/02 04:54:19;;;;;;;3.03;1.80;;;;;;;;;;5093175;28;20055;-60
2024/03/02 04:56:49;;;;;;;3.08;1.73;;;;;;;;;;5090694;28;20405;-59
2024/03/02 04:59:16;;;;;;;2.42;1.67;;;;;;;;;;5092493;28;20496;-60
2024/03/02 05:01:43;;;;;;;3.40;1.70;;;;;;;;;;5092505;28;20044;-61
2024/03/02 05:04:11;;;;;;;3.53;1.60;;;;;;;;;;5093105;28;20048;-61
2024/03/02 05:06:39;;;;;;;4.70;2.47;;;;;;;;;;5091856;28;20051;-61
2024/03/02 05:09:05;;;;;;;3.30;1.75;;;;;;;;;;5090292;28;20048;-60
2024/03/02 05:12:02;;;;;;;3.33;1.90;;;;;;;;;;5091216;28;20055;-61
2024/03/02 05:14:31;;;;;;;3.92;1.75;;;;;;;;;;5090528;28;20063;-62
2024/03/02 05:16:57;;;;;;;3.75;2.00;;;;;;;;;;5090891;28;20056;-58
2024/03/02 05:19:25;;;;;;;4.40;1.90;;;;;;;;;;5089596;28;20067;-63
2024/03/02 05:21:51;;;;;;;3.30;2.17;;;;;;;;;;5090647;28;20047;-60
2024/03/02 05:24:18;;;;;;;3.70;2.00;;;;;;;;;;5090457;28;20070;-60
2024/03/02 05:26:45;;;;;;;3.47;1.80;;;;;;;;;;5091429;28;20055;-60
2024/03/02 05:29:11;;;;;;;3.97;1.90;;;;;;;;;;5092584;28;20056;-61
2024/03/02 05:31:39;;;;;;;4.60;2.20;;;;;;;;;;5089885;28;20096;-60
2024/03/02 05:34:06;;;;;;;4.47;2.17;;;;;;;;;;5090819;28;20074;-61
2024/03/02 05:36:33;;;;;;;4.82;2.20;;;;;;;;;;5092075;28;20060;-60
2024/03/02 05:39:00;;;;;;;3.58;2.05;;;;;;;;;;5092339;28;20052;-60
2024/03/02 05:41:26;;;;;;;3.63;2.00;;;;;;;;;;5090491;28;20048;-61
2024/03/02 05:43:53;;;;;;;4.38;2.22;;;;;;;;;;5090347;28;20051;-61
2024/03/02 05:46:20;;;;;;;3.03;2.10;;;;;;;;;;5091837;28;20385;-60
2024/03/02 05:48:48;;;;;;;3.33;1.95;;;;;;;;;;5092469;28;20134;-61
2024/03/02 05:51:15;;;;;;;3.50;2.58;;;;;;;;;;5090972;28;20517;-61
2024/03/02 05:53:42;;;;;;;4.20;2.40;;;;;;;;;;5090525;28;20048;-60
2024/03/02 05:56:08;;;;;;;4.50;2.35;;;;;;;;;;5091563;28;20044;-61
2024/03/02 05:58:49;;;;;;;4.70;2.40;;;;;;;;;;5092144;28;20052;-61
2024/03/02 06:01:16;;;;;;;4.25;2.55;;;;;;;;;;5091298;28;20048;-60
2024/03/02 06:03:43;;;;;;;4.03;2.28;;;;;;;;;;5090867;28;20405;-60
2024/03/02 06:06:11;;;;;;;4.63;2.50;;;;;;;;;;5091715;28;20075;-60
2024/03/02 06:08:39;;;;;;;5.82;3.00;;;;;;;;;;5092072;28;20048;-60
2024/03/02 06:11:06;;;;;;;3.10;2.53;;;;;;;;;;5091363;28;20063;-61
2024/03/02 06:13:32;;;;;;;3.38;2.28;;;;;;;;;;5089703;28;20076;-60
2024/03/02 06:15:59;;;;;;;4.85;2.42;;;;;;;;;;5091868;28;20055;-59
2024/03/02 06:18:27;;;;;;;3.78;2.42;;;;;;;;;;5091376;28;20056;-61
2024/03/02 06:20:53;;;;;;;4.43;2.50;;;;;;;;;;5090949;28;20063;-61
2024/03/02 06:23:22;;;;;;;3.88;2.30;;;;;;;;;;5089457;28;20055;-61
2024/03/02 06:25:48;;;;;;;4.68;2.50;;;;;;;;;;5089767;28;20072;-61
2024/03/02 06:28:15;;;;;;;3.80;2.05;;;;;;;;;;5091911;28;20059;-61
2024/03/02 06:30:42;;;;;;;4.85;2.60;;;;;;;;;;5092001;28;20408;-61
2024/03/02 06:33:09;;;;;;;3.42;2.20;;;;;;;;;;5089131;28;20048;-60
2024/03/02 06:35:36;;;;;;;5.00;2.45;;;;;;;;;;5089505;28;20055;-60
2024/03/02 06:38:03;;;;;;;4.18;2.47;;;;;;;;;;5089270;28;20059;-60
2024/03/02 06:40:31;;;;;;;4.43;2.50;;;;;;;;;;5091586;28;20122;-61
2024/03/02 06:42:58;;;;;;;3.35;2.42;;;;;;;;;;5093012;28;20048;-59
2024/03/02 06:45:25;;;;;;;4.65;2.58;;;;;;;;;;5095200;28;20047;-60
2024/03/02 06:47:51;;;;;;;3.65;2.40;;;;;;;;;;5094535;28;20405;-59
2024/03/02 06:50:18;;;;;;;5.18;2.97;;;;;;;;;;5092664;28;20427;-59
2024/03/02 06:52:45;;;;;;;3.90;2.33;;;;;;;;;;5094267;28;20481;-61
2024/03/02 06:55:12;;;;;;;4.05;2.33;;;;;;;;;;5094574;28;20535;-60
2024/03/02 06:57:41;;;;;;;3.13;2.28;;;;;;;;;;5094791;28;20143;-60
2024/03/02 07:00:08;;;;;;;4.00;2.38;;;;;;;;;;5092031;28;20118;-60
2024/03/02 07:02:35;;;;;;;3.20;2.10;;;;;;;;;;5092959;28;20488;-59
2024/03/02 07:05:02;;;;;;;3.90;2.20;;;;;;;;;;5091494;28;20059;-62
2024/03/02 07:07:30;;;;;;;5.82;2.53;;;;;;;;;;5092371;28;20086;-59
2024/03/02 07:09:57;;;;;;;3.70;2.30;;;;;;;;;;5092334;28;20055;-59
2024/03/02 07:12:24;;;;;;;3.13;2.20;;;;;;;;;;5093987;28;20052;-60
2024/03/02 07:15:07;;;;;;;4.40;2.53;;;;;;;;;;5094416;28;20059;-60
2024/03/02 07:17:35;;;;;;;4.13;2.40;;;;;;;;;;5093857;28;20428;-60
2024/03/02 07:20:02;;;;;;;3.70;2.00;;;;;;;;;;5093103;28;20493;-60
2024/03/02 07:22:28;;;;;;;5.28;2.50;;;;;;;;;;5092791;28;20048;-61
2024/03/02 07:24:55;;;;;;;4.10;2.20;;;;;;;;;;5094301;28;20052;-59
2024/03/02 07:27:22;;;;;;;3.70;2.25;;;;;;;;;;5093621;28;20393;-60
2024/03/02 07:29:49;;;;;;;3.92;2.60;;;;;;;;;;5093264;28;20068;-60
2024/03/02 07:32:17;;;;;;;4.53;3.20;;;;;;;;;;5092218;28;20044;-60
2024/03/02 07:34:44;;;;;;;4.88;3.15;;;;;;;;;;5092216;28;20055;-59
2024/03/02 07:37:10;;;;;;;5.13;3.13;;;;;;;;;;5093038;28;20055;-59
2024/03/02 07:39:37;;;;;;;5.35;2.67;;;;;;;;;;5094011;28;20060;-59
2024/03/02 07:42:06;;;;;;;3.45;2.60;;;;;;;;;;5091276;28;20413;-60
2024/03/02 07:44:32;;;;;;;4.60;2.75;;;;;;;;;;5092954;28;20056;-59
2024/03/02 07:46:59;;;;;;;4.00;2.75;;;;;;;;;;5093089;28;20043;-61
2024/03/02 07:49:27;;;;;;;4.32;2.55;;;;;;;;;;5090560;28;20059;-59
2024/03/02 07:51:55;;;;;;;4.00;2.70;;;;;;;;;;5092772;28;20412;-59
2024/03/02 07:54:24;;;;;;;4.65;2.70;;;;;;;;;;5093728;28;20056;-61
2024/03/02 07:56:51;;;;;;;3.60;2.95;;;;;;;;;;5092995;28;20052;-60
2024/03/02 07:59:17;;;;;;;4.35;2.80;;;;;;;;;;5091703;28;20059;-60
2024/03/02 08:01:44;;;;;;;3.78;2.75;;;;;;;;;;5091297;28;20055;-60
2024/03/02 08:04:11;;;;;;;4.95;2.80;;;;;;;;;;5091960;28;20055;-60
2024/03/02 08:06:39;;;;;;;3.65;2.75;;;;;;;;;;5090633;28;20046;-59
2024/03/02 08:09:09;;;;;;;3.28;2.47;;;;;;;;;;5090124;28;20048;-60
2024/03/02 08:11:37;;;;;;;3.83;2.67;;;;;;;;;;5090846;28;20044;-60
2024/03/02 08:14:03;;;;;;;3.80;2.75;;;;;;;;;;5092913;28;20485;-62
2024/03/02 08:16:30;;;;;;;3.78;2.33;;;;;;;;;;5092479;28;20056;-62
2024/03/02 08:18:58;;;;;;;3.85;2.67;;;;;;;;;;5075975;28;20060;-63
2024/03/02 08:21:24;;;;;;;3.22;2.50;;;;;;;;;;5091043;28;20056;-62
2024/03/02 08:23:53;;;;;;;4.18;2.83;;;;;;;;;;5088194;28;20808;-62
2024/03/02 08:26:37;;;;;;;3.40;2.58;;;;;;;;;;5089495;28;20169;-63
2024/03/02 08:29:09;;;;;;;4.18;2.50;;;;;;;;;;5089864;28;20055;-64
2024/03/02 08:31:35;;;;;;;4.72;3.13;;;;;;;;;;5090217;28;20409;-63
2024/03/02 08:34:02;;;;;;;3.55;2.35;;;;;;;;;;5092666;28;20055;-63
2024/03/02 08:36:29;;;;;;;4.03;2.35;;;;;;;;;;5091065;28;20421;-62
2024/03/02 08:38:57;;;;;;;2.97;2.10;;;;;;;;;;5089964;28;20047;-63
2024/03/02 08:41:24;;;;;;;3.30;2.20;;;;;;;;;;5092445;28;20412;-63
2024/03/02 08:43:51;;;;;;;3.90;2.03;;;;;;;;;;5093046;28;20055;-63
2024/03/02 08:46:17;;;;;;;3.70;2.60;;;;;;;;;;5086733;28;20044;-62
2024/03/02 08:48:44;;;;;;;3.05;2.10;;;;;;;;;;5086270;28;20159;-63
2024/03/02 08:51:11;;;;;;;3.67;2.33;;;;;;;;;;5090291;28;20059;-62
2024/03/02 08:53:38;;;;;;;4.78;2.70;;;;;;;;;;5091901;28;20052;-63
2024/03/02 08:56:07;;;;;;;4.13;2.40;;;;;;;;;;5092613;28;20059;-64
2024/03/02 08:58:33;;;;;;;3.78;2.30;;;;;;;;;;5092200;28;20056;-63
2024/03/02 09:01:00;;;;;;;3.85;2.20;;;;;;;;;;5089257;28;20523;-63
2024/03/02 09:03:27;;;;;;;4.05;1.92;;;;;;;;;;5090333;28;20048;-63
2024/03/02 09:05:54;;;;;;;2.65;1.60;;;;;;;;;;5089612;28;20062;-63
2024/03/02 09:08:21;;;;;;;3.03;1.60;;;;;;;;;;5089725;28;20456;-63
2024/03/02 09:10:48;;;;;;;2.78;1.50;;;;;;;;;;5088877;28;20043;-62
2024/03/02 09:13:16;;;;;;;3.10;1.70;;;;;;;;;;5090811;28;20051;-62
2024/03/02 09:15:44;;;;;;;2.67;1.60;;;;;;;;;;5087488;28;20064;-60
2024/03/02 09:18:11;;;;;;;2.47;1.52;;;;;;;;;;5091006;28;20056;-63
2024/03/02 09:20:38;;;;;;;2.42;1.40;;;;;;;;;;5091696;28;20389;-63
2024/03/02 09:23:04;;;;;;;3.30;1.52;;;;;;;;;;5091641;28;20048;-62
2024/03/02 09:25:31;;;;;;;2.28;1.63;;;;;;;;;;5082821;28;20059;-61
2024/03/02 09:27:58;;;;;;;2.22;1.40;;;;;;;;;;5088819;28;20048;-60
2024/03/02 09:30:26;;;;;;;1.90;1.42;;;;;;;;;;5088910;28;20482;-61
2024/03/02 09:32:53;;;;;;;1.95;1.33;;;;;;;;;;5089055;28;20048;-60
2024/03/02 09:35:20;;;;;;;1.60;1.00;;;;;;;;;;5088540;28;20513;-61
2024/03/02 09:37:47;;;;;;;2.08;1.10;;;;;;;;;;5091971;28;20056;-62
2024/03/02 09:40:14;;;;;;;2.10;1.10;;;;;;;;;;5091157;28;20067;-61
2024/03/02 09:42:41;;;;;;;2.20;1.25;;;;;;;;;;5091957;28;20056;-61
2024/03/02 09:45:08;;;;;;;1.85;1.20;;;;;;;;;;5085668;28;20044;-62
2024/03/02 09:47:36;;;;;;;2.00;1.08;;;;;;;;;;5089574;28;20374;-61
2024/03/02 09:50:03;;;;;;;1.90;1.00;;;;;;;;;;5089810;28;20075;-62
2024/03/02 09:52:32;;;;;;;2.75;1.17;;;;;;;;;;5091233;28;20059;-62
2024/03/02 09:54:58;;;;;;;1.50;1.08;;;;;;;;;;5088915;28;20040;-61
2024/03/02 09:57:25;;;;;;;2.58;1.20;;;;;;;;;;5091298;28;20473;-62
2024/03/02 09:59:52;;;;;;;1.70;1.00;;;;;;;;;;5090610;28;20055;-61
2024/03/02 10:02:19;;;;;;;2.33;0.90;;;;;;;;;;5091121;28;20055;-62
2024/03/02 10:04:49;;;;;;;1.70;1.10;;;;;;;;;;5090647;28;20505;-61
2024/03/02 10:07:17;;;;;;;1.55;0.80;;;;;;;;;;5089531;28;20052;-61
2024/03/02 10:09:45;;;;;;;1.60;0.90;;;;;;;;;;5089488;28;20059;-63
2024/03/02 10:12:12;;;;;;;1.95;0.90;;;;;;;;;;5087939;28;20050;-61
2024/03/02 10:14:39;;;;;;;1.80;1.00;;;;;;;;;;5089551;28;20060;-63
2024/03/02 10:17:07;;;;;;;1.88;1.00;;;;;;;;;;5091364;28;20059;-62
2024/03/02 10:19:34;;;;;;;2.33;1.10;;;;;;;;;;5090801;28;20059;-62
2024/03/02 10:22:03;;;;;;;2.13;1.00;;;;;;;;;;5090866;28;20488;-61
2024/03/02 10:24:35;;;;;;;1.40;0.82;;;;;;;;;;5094947;28;20118;-62
2024/03/02 10:27:02;;;;;;;2.85;1.20;;;;;;;;;;5095242;28;20517;-62
2024/03/02 10:29:30;;;;;;;1.88;1.00;;;;;;;;;;5093022;28;20420;-62
2024/03/02 10:31:59;;;;;;;2.35;1.00;;;;;;;;;;5094509;28;20473;-61
2024/03/02 10:34:25;;;;;;;1.47;0.87;;;;;;;;;;5090743;28;20382;-61
2024/03/02 10:36:52;;;;;;;1.95;1.00;;;;;;;;;;5090697;28;20470;-61
2024/03/02 10:39:21;;;;;;;1.50;0.93;;;;;;;;;;5090289;28;20508;-61
2024/03/02 10:41:50;;;;;;;1.70;1.10;;;;;;;;;;5093164;28;20055;-61
2024/03/02 10:44:17;;;;;;;;;;;;;;;;;;5092792;28;20478;-62
2024/03/02 10:46:44;;;;;;;1.90;1.00;;;;;;;;;;5094550;28;19924;-61
2024/03/02 10:49:11;;;;;;;1.65;0.90;;;;;;;;;;5095319;28;20048;-61
2024/03/02 10:51:38;;;;;;;1.60;1.00;;;;;;;;;;5089016;28;20056;-63
2024/03/02 10:54:06;;;;;;;3.03;1.00;;;;;;;;;;5091015;28;20051;-62
2024/03/02 10:56:34;;;;;;;2.03;1.00;;;;;;;;;;5092488;28;20536;-62
2024/03/02 10:59:03;;;;;;;2.70;0.90;;;;;;;;;;5090756;28;20048;-62
2024/03/02 11:01:30;;;;;;;2.25;1.20;;;;;;;;;;5090946;28;20059;-62
2024/03/02 11:03:57;;;;;;;3.25;1.05;;;;;;;;;;5093103;28;20480;-61
2024/03/02 11:06:26;;;;;;;2.00;0.98;;;;;;;;;;5091592;28;20048;-60
2024/03/02 11:08:58;;;;;;;1.40;0.82;;;;;;;;;;5088585;28;20056;-62
2024/03/02 11:11:29;;;;;;;2.35;0.90;;;;;;;;;;5093147;28;20055;-61
2024/03/02 11:13:59;;;;;;;2.53;1.00;;;;;;;;;;5087719;28;20056;-62
2024/03/02 11:16:32;;;;;;;1.48;0.80;;;;;;;;;;5089612;28;20088;-62
2024/03/02 11:19:00;;;;;;;2.08;1.00;;;;;;;;;;5090082;28;20056;-61
2024/03/02 11:21:27;;;;;;;1.30;0.70;;;;;;;;;;5094013;28;20062;-63
2024/03/02 11:23:55;;;;;;;1.70;1.00;;;;;;;;;;5093102;28;20055;-62
2024/03/02 11:26:23;;;;;;;1.42;0.75;;;;;;;;;;5093460;28;20056;-63
2024/03/02 11:28:49;;;;;;;1.98;0.75;;;;;;;;;;5092146;28;20059;-63
2024/03/02 11:31:18;;;;;;;1.20;0.70;;;;;;;;;;5092205;28;20051;-63
2024/03/02 11:33:45;;;;;;;2.22;0.95;;;;;;;;;;5090991;28;20405;-62
2024/03/02 11:36:12;;;;;;;1.30;0.75;;;;;;;;;;5093411;28;20059;-61
2024/03/02 11:38:39;;;;;;;1.77;0.77;;;;;;;;;;5094145;28;20051;-62
2024/03/02 11:41:08;;;;;;;2.78;0.80;;;;;;;;;;5093499;28;20060;-62
2024/03/02 11:43:39;;;;;;;1.98;0.90;;;;;;;;;;5094108;28;20056;-62
2024/03/02 11:46:07;;;;;;;2.60;0.60;;;;;;;;;;5094053;28;20512;-62
2024/03/02 11:48:35;;;;;;;1.27;0.70;;;;;;;;;;5094445;28;20409;-60
2024/03/02 11:51:02;;;;;;;1.27;0.70;;;;;;;;;;5094144;28;20067;-61
2024/03/02 11:53:29;;;;;;;1.27;0.70;;;;;;;;;;5091721;28;20067;-60
2024/03/02 11:55:56;;;;;;;0.93;0.52;;;;;;;;;;5092751;28;20114;-62
2024/03/02 11:58:26;;;;;;;1.65;0.80;;;;;;;;;;5094146;28;20512;-62
2024/03/02 12:00:54;;;;;;;1.50;0.65;;;;;;;;;;5093783;28;20066;-62
2024/03/02 12:03:22;;;;;;;1.45;0.80;;;;;;;;;;5089952;28;20051;-62
2024/03/02 12:05:51;;;;;;;1.58;0.88;;;;;;;;;;5092200;28;20386;-62
2024/03/02 12:08:18;;;;;;;1.40;0.70;;;;;;;;;;5093815;28;20066;-63
2024/03/02 12:10:56;;;;;;;1.10;0.60;;;;;;;;;;5092851;28;20516;-62
2024/03/02 12:13:23;;;;;;;1.48;0.80;;;;;;;;;;5090939;28;20062;-62
2024/03/02 12:15:53;;;;;;;1.30;0.80;;;;;;;;;;5093007;28;20044;-62
2024/03/02 12:18:20;;;;;;;1.10;0.63;;;;;;;;;;5093155;28;20060;-62
2024/03/02 12:20:49;;;;;;;1.67;0.80;;;;;;;;;;5092306;28;20055;-61
2024/03/02 12:23:17;;;;;;;5.97;1.02;;;;;;;;;;5093506;28;20052;-61
2024/03/02 12:25:44;;;;;;;1.10;0.70;;;;;;;;;;5093018;28;20048;-61
2024/03/02 12:28:11;;;;;;;1.70;0.73;;;;;;;;;;5087492;28;20470;-61
2024/03/02 12:30:38;;;;;;;1.67;0.60;;;;;;;;;;5091895;28;20052;-62
2024/03/02 12:33:05;;;;;;;1.17;0.60;;;;;;;;;;5093255;28;20079;-61
2024/03/02 12:35:32;;;;;;;1.45;0.88;;;;;;;;;;5093525;28;20055;-62
2024/03/02 12:37:59;;;;;;;1.63;0.80;;;;;;;;;;5092270;28;20060;-62
2024/03/02 12:40:27;;;;;;;1.77;0.90;;;;;;;;;;5091736;28;20059;-61
2024/03/02 12:42:54;;;;;;;2.08;0.90;;;;;;;;;;5092743;28;20489;-62
2024/03/02 12:45:23;;;;;;;1.60;1.00;;;;;;;;;;5093355;28;20055;-61
2024/03/02 12:47:51;;;;;;;1.45;0.80;;;;;;;;;;5092293;28;20052;-62
2024/03/02 12:50:18;;;;;;;2.00;0.90;;;;;;;;;;5091538;28;20044;-61
2024/03/02 12:52:44;;;;;;;2.30;0.88;;;;;;;;;;5088748;28;20048;-61
2024/03/02 12:55:11;;;;;;;1.33;0.80;;;;;;;;;;5091290;28;20122;-62
2024/03/02 12:57:40;;;;;;;1.52;0.90;;;;;;;;;;5090175;28;20058;-62
2024/03/02 13:00:08;;;;;;;1.75;0.85;;;;;;;;;;5089791;28;20067;-62
2024/03/02 13:02:36;;;;;;;1.23;0.77;;;;;;;;;;5088223;28;20056;-61
2024/03/02 13:05:02;;;;;;;2.47;0.77;;;;;;;;;;5089458;28;20040;-63
2024/03/02 13:07:29;;;;;;;3.20;1.13;;;;;;;;;;5089733;28;20051;-62
2024/03/02 13:09:57;;;;;;;1.58;0.90;;;;;;;;;;5088633;28;20410;-62
2024/03/02 13:12:24;;;;;;;2.08;0.90;;;;;;;;;;5090574;28;20401;-61
2024/03/02 13:14:53;;;;;;;1.35;0.88;;;;;;;;;;5087648;28;20059;-63
2024/03/02 13:17:21;;;;;;;1.40;0.70;;;;;;;;;;5087803;28;20060;-62
2024/03/02 13:19:54;;;;;;;1.52;0.90;;;;;;;;;;5092377;28;20071;-62
2024/03/02 13:22:21;;;;;;;1.63;0.85;;;;;;;;;;5092565;28;20382;-62
2024/03/02 13:24:48;;;;;;;1.42;0.70;;;;;;;;;;5091153;28;20044;-60
2024/03/02 13:27:15;;;;;;;2.22;0.52;;;;;;;;;;5090060;28;20044;-62
2024/03/02 13:29:41;;;;;;;1.23;0.70;;;;;;;;;;5090601;28;20055;-63
2024/03/02 13:32:10;;;;;;;1.92;0.88;;;;;;;;;;5091831;28;20052;-62
2024/03/02 13:34:37;;;;;;;1.33;0.70;;;;;;;;;;5091272;28;20059;-62
2024/03/02 13:37:05;;;;;;;1.20;0.70;;;;;;;;;;5090027;28;20051;-62
2024/03/02 13:39:32;;;;;;;1.35;0.60;;;;;;;;;;5090451;28;20052;-62
2024/03/02 13:42:04;;;;;;;1.60;0.60;;;;;;;;;;5090053;28;20059;-62
2024/03/02 13:44:30;;;;;;;2.42;0.95;;;;;;;;;;5090723;28;20413;-62
2024/03/02 13:46:58;;;;;;;1.40;0.90;;;;;;;;;;5089549;28;20075;-62
2024/03/02 13:49:28;;;;;;;1.75;0.82;;;;;;;;;;5090187;28;20052;-62
2024/03/02 13:51:56;;;;;;;1.98;0.80;;;;;;;;;;5090247;28;20484;-62
2024/03/02 13:54:23;;;;;;;1.30;0.70;;;;;;;;;;5096919;28;20478;-62
2024/03/02 13:56:50;;;;;;;1.90;0.60;;;;;;;;;;5096581;28;20048;-62
2024/03/02 13:59:17;;;;;;;1.40;0.75;;;;;;;;;;5096339;28;20051;-62
2024/03/02 14:01:44;;;;;;;1.35;0.80;;;;;;;;;;5094986;28;20043;-62
2024/03/02 14:04:11;;;;;;;1.67;0.80;;;;;;;;;;5096215;28;20059;-62
2024/03/02 14:06:39;;;;;;;1.95;0.90;;;;;;;;;;5096370;28;20059;-62
2024/03/02 14:09:06;;;;;;;2.10;0.80;;;;;;;;;;5094539;28;20052;-61
2024/03/02 14:11:33;;;;;;;3.10;1.00;;;;;;;;;;5093923;28;20048;-61
2024/03/02 14:13:59;;;;;;;1.50;0.82;;;;;;;;;;5094258;28;20047;-59
2024/03/02 14:16:26;;;;;;;1.67;0.98;;;;;;;;;;5081802;28;20063;-62
2024/03/02 14:18:53;;;;;;;1.35;0.90;;;;;;;;;;5084371;28;20815;-62
2024/03/02 14:21:20;;;;;;;2.00;1.02;;;;;;;;;;5093926;28;20068;-61
2024/03/02 14:23:48;;;;;;;2.15;1.20;;;;;;;;;;5096262;28;20052;-61
2024/03/02 14:26:15;;;;;;;1.67;1.00;;;;;;;;;;5095269;28;20421;-64
2024/03/02 14:28:41;;;;;;;2.35;1.10;;;;;;;;;;5092376;28;20062;-61
2024/03/02 14:31:08;;;;;;;1.83;1.00;;;;;;;;;;5091025;28;20058;-61
2024/03/02 14:33:35;;;;;;;3.08;1.30;;;;;;;;;;5093118;28;20071;-61
2024/03/02 14:36:02;;;;;;;2.05;1.20;;;;;;;;;;5092730;28;20489;-61
2024/03/02 14:38:30;;;;;;;1.42;1.00;;;;;;;;;;5093488;28;20408;-61
2024/03/02 14:40:58;;;;;;;2.55;1.20;;;;;;;;;;5094806;28;20063;-61
2024/03/02 14:43:25;;;;;;;3.00;1.10;;;;;;;;;;5092697;28;20055;-60
2024/03/02 14:45:52;;;;;;;2.05;1.20;;;;;;;;;;5092464;28;20043;-60